createdAt,value
2022-12-31T00:09:26.839Z,100
2022-12-31T00:19:27.053Z,100
2022-12-31T00:49:28.409Z,100
2022-12-31T00:59:29.473Z,100
2022-12-31T01:09:29.629Z,100
2022-12-31T01:19:29.966Z,100
2022-12-31T01:29:31.059Z,100
2022-12-31T01:39:31.027Z,100
2022-12-31T01:49:32.032Z,100
2022-12-31T01:59:32.725Z,100
2022-12-31T02:09:33.109Z,100
2022-12-31T02:19:33.318Z,100
2022-12-31T02:29:33.555Z,100
2022-12-31T02:49:33.972Z,100
2022-12-31T02:59:34.799Z,100
2022-12-31T03:09:35.549Z,100
2022-12-31T03:59:37.825Z,100
2022-12-31T04:09:38.701Z,100
2022-12-31T04:19:39.575Z,100
2022-12-31T04:29:39.863Z,100
2022-12-31T04:39:39.979Z,100
2022-12-31T04:49:40.582Z,100
2022-12-31T04:59:40.920Z,100
2022-12-31T05:09:41.612Z,100
2022-12-31T05:19:41.897Z,100
2022-12-31T05:29:42.179Z,100
2022-12-31T05:39:42.635Z,100
2022-12-31T05:49:43.481Z,98
2022-12-31T05:59:43.861Z,97
2022-12-31T06:09:44.577Z,95
2022-12-31T06:19:45.240Z,95
2022-12-31T06:29:46.113Z,94
2022-12-31T06:39:46.605Z,93
2022-12-31T06:49:47.660Z,93
2022-12-31T07:19:55.528Z,91
2022-12-31T07:29:50.310Z,90
2022-12-31T07:39:50.446Z,89
2022-12-31T07:59:51.619Z,89
2022-12-31T08:19:52.784Z,89
2022-12-31T08:29:53.307Z,88
2022-12-31T08:39:53.821Z,89
2022-12-31T08:49:54.585Z,88
2022-12-31T08:59:55.162Z,88
2022-12-31T09:09:55.344Z,87
2022-12-31T09:19:55.741Z,86
2022-12-31T09:39:57.040Z,84
2022-12-31T09:49:58.078Z,85
2022-12-31T09:59:58.305Z,86
2022-12-31T10:09:59.321Z,87
2022-12-31T10:19:59.770Z,87
2022-12-31T10:30:00.481Z,87
2022-12-31T11:00:01.467Z,84
2022-12-31T11:10:01.883Z,84
2022-12-31T11:20:02.204Z,84
2022-12-31T11:30:03.384Z,83
2022-12-31T11:40:03.966Z,83
2022-12-31T12:10:05.835Z,83
2022-12-31T12:20:06.684Z,82
2022-12-31T12:50:08.368Z,83
2022-12-31T13:10:10.100Z,87
2022-12-31T13:40:11.723Z,85
2022-12-31T14:00:12.681Z,84
2022-12-31T14:10:13.275Z,85
2022-12-31T14:50:15.360Z,83
2022-12-31T15:00:15.962Z,81
2022-12-31T15:10:16.775Z,81
2022-12-31T15:20:17.972Z,81
2022-12-31T15:30:17.995Z,80
2022-12-31T15:50:18.765Z,84
2022-12-31T16:00:19.443Z,86
2022-12-31T16:10:19.710Z,86
2022-12-31T16:20:20.182Z,86
2022-12-31T16:30:21.179Z,86
2022-12-31T16:40:21.537Z,84
2022-12-31T17:00:22.772Z,83
2022-12-31T17:10:23.680Z,81
2022-12-31T17:30:24.647Z,80
2022-12-31T17:40:50.193Z,79
2022-12-31T17:50:26.217Z,78
2022-12-31T18:00:27.162Z,77
2022-12-31T18:10:27.990Z,76
2022-12-31T18:20:28.283Z,76
2022-12-31T18:40:29.150Z,75
2022-12-31T19:00:30.090Z,74
2022-12-31T19:10:30.894Z,73
2022-12-31T19:20:31.275Z,72
2022-12-31T19:40:32.631Z,71
2022-12-31T19:50:32.927Z,71
2022-12-31T20:00:33.710Z,70
2022-12-31T20:20:35.690Z,69
2022-12-31T20:30:36.724Z,67
2022-12-31T20:40:40.204Z,67
2022-12-31T20:50:37.890Z,67
2022-12-31T21:00:38.321Z,65
2022-12-31T21:10:38.850Z,64
2022-12-31T21:30:40.439Z,64
2022-12-31T21:40:40.605Z,64
2022-12-31T21:50:40.968Z,63
2022-12-31T22:00:42.926Z,63
2022-12-31T22:10:48.812Z,63
2022-12-31T22:40:43.420Z,62
2022-12-31T22:50:43.750Z,62
2022-12-31T23:10:44.671Z,62
2022-12-31T23:20:44.869Z,61
2022-12-31T23:30:45.331Z,61
2022-12-31T23:40:45.563Z,61
2022-12-31T23:50:50.934Z,61
